Time;durP1;ratioP1;P1;durP2;ratioP2;P2;SDS_P1;SDS_P2;PMS_P1;PMS_P2;Temp;Humidity;BMP_temperature;BMP_pressure;BME280_temperature;BME280_humidity;BME280_pressure;Samples;Min_cycle;Max_cycle;Signal;HPM_P1;HPM_P2
2021/12/13 00:02:18;;;;;;;72.62;46.02;;;;;;;9.53;100.00;102464.94;5065279;28;19913;-63
2021/12/13 00:04:55;;;;;;;75.65;43.58;;;;;;;9.52;100.00;102457.94;5067763;28;20040;-63
2021/12/13 00:07:24;;;;;;;77.13;44.80;;;;;;;9.50;100.00;102464.34;5063861;28;20028;-63
2021/12/13 00:09:53;;;;;;;70.70;43.65;;;;;;;9.50;100.00;102467.84;5066878;28;20542;-63
2021/12/13 00:12:28;;;;;;;70.15;42.67;;;;;;;9.49;100.00;102458.19;5066864;28;20480;-63
2021/12/13 00:14:56;;;;;;;72.65;42.47;;;;;;;9.49;100.00;102465.31;5067537;28;20036;-63
2021/12/13 00:17:36;;;;;;;66.80;40.95;;;;;;;9.48;100.00;102463.63;5063519;28;20043;-64
2021/12/13 00:20:40;;;;;;;63.92;40.75;;;;;;;9.46;100.00;102461.09;5067458;28;20024;-63
2021/12/13 00:23:34;;;;;;;65.10;40.47;;;;;;;9.46;100.00;102465.56;5064321;28;20047;-63
2021/12/13 00:26:04;;;;;;;66.15;40.25;;;;;;;9.44;100.00;102465.69;5058435;28;20044;-63
2021/12/13 00:28:35;;;;;;;60.17;38.15;;;;;;;9.44;100.00;102462.19;5064614;28;20401;-63
2021/12/13 00:31:25;;;;;;;62.55;39.22;;;;;;;9.43;100.00;102468.47;5067110;28;20032;-63
2021/12/13 00:34:19;;;;;;;61.47;38.30;;;;;;;9.42;100.00;102469.44;5067577;28;20021;-63
2021/12/13 00:36:51;;;;;;;62.80;37.08;;;;;;;9.39;100.00;102475.81;5063192;28;20078;-64
2021/12/13 00:39:23;;;;;;;63.58;38.50;;;;;;;9.38;100.00;102478.59;5066241;28;20024;-63
2021/12/13 00:41:49;;;;;;;62.40;38.70;;;;;;;9.37;100.00;102476.91;5063739;28;20056;-63
2021/12/13 00:44:19;;;;;;;60.40;37.45;;;;;;;9.37;100.00;102480.41;5067433;28;20021;-64
2021/12/13 00:46:47;;;;;;;54.67;35.78;;;;;;;9.34;100.00;102472.69;5067705;28;20043;-63
2021/12/13 00:49:15;;;;;;;57.25;36.05;;;;;;;9.36;100.00;102477.88;5067588;28;20032;-64
2021/12/13 00:51:48;;;;;;;51.30;33.83;;;;;;;9.34;100.00;102488.63;5070696;28;20043;-63
2021/12/13 00:54:32;;;;;;;52.70;34.60;;;;;;;9.35;100.00;102486.81;5069901;28;20020;-63
2021/12/13 00:57:00;;;;;;;47.38;31.52;;;;;;;9.33;100.00;102476.31;5070502;28;20112;-63
2021/12/13 00:59:50;;;;;;;48.65;32.33;;;;;;;9.35;100.00;102490.28;5070237;28;20020;-63
2021/12/13 01:02:19;;;;;;;50.83;30.33;;;;;;;9.31;100.00;102486.22;5066587;28;20056;-63
2021/12/13 01:05:14;;;;;;;;;;;;;;;9.35;100.00;102484.16;5071166;28;20032;-63
2021/12/13 01:07:58;;;;;;;45.55;29.52;;;;;;;9.32;100.00;102486.09;5054063;28;19924;-63
2021/12/13 01:10:42;;;;;;;43.30;28.90;;;;;;;9.31;100.00;102488.84;5070064;28;20036;-62
2021/12/13 01:13:19;;;;;;;44.22;28.63;;;;;;;9.29;100.00;102488.13;5070791;28;20443;-62
2021/12/13 01:15:52;;;;;;;38.95;27.27;;;;;;;9.26;100.00;102491.03;5069416;28;20032;-62
2021/12/13 01:18:33;;;;;;;38.60;27.10;;;;;;;9.26;100.00;102496.34;5069675;28;20024;-62
2021/12/13 01:21:17;;;;;;;41.58;26.60;;;;;;;9.23;100.00;102492.09;5064826;28;20025;-62
2021/12/13 01:23:51;;;;;;;43.45;25.40;;;;;;;9.19;100.00;102489.81;5070295;28;20481;-62
2021/12/13 01:26:35;;;;;;;39.00;25.88;;;;;;;9.16;100.00;102488.25;5069573;28;20506;-62
2021/12/13 01:29:08;;;;;;;41.67;26.30;;;;;;;9.15;100.00;102498.97;5069846;28;20567;-62
2021/12/13 01:31:37;;;;;;;41.97;25.15;;;;;;;9.14;100.00;102499.94;5070006;28;20089;-63
2021/12/13 01:34:04;;;;;;;;;;;;;;;9.14;100.00;102507.88;5069583;28;20029;-62
2021/12/13 01:36:41;;;;;;;39.05;23.80;;;;;;;9.09;100.00;102502.94;5063635;28;20010;-62
2021/12/13 01:39:11;;;;;;;41.80;24.92;;;;;;;9.06;100.00;102505.84;5065471;28;20032;-62
2021/12/13 01:41:43;;;;;;;40.10;24.80;;;;;;;9.06;100.00;102505.84;5063937;28;20564;-62
2021/12/13 01:44:20;;;;;;;42.47;24.70;;;;;;;9.06;100.00;102505.00;5069479;28;20028;-62
2021/12/13 01:46:50;;;;;;;43.45;24.95;;;;;;;9.05;100.00;102509.47;5069206;28;20372;-62
2021/12/13 01:49:16;;;;;;;36.60;26.02;;;;;;;9.04;100.00;102509.59;5064472;28;20067;-62
2021/12/13 01:51:42;;;;;;;39.33;25.77;;;;;;;9.03;100.00;102516.69;5069339;28;20288;-63
2021/12/13 01:54:17;;;;;;;36.75;25.60;;;;;;;9.03;100.00;102515.84;5070009;28;20241;-62
2021/12/13 01:57:10;;;;;;;39.53;26.05;;;;;;;9.01;100.00;102518.63;5069609;28;20114;-63
2021/12/13 01:59:49;;;;;;;41.83;28.08;;;;;;;9.01;100.00;102510.66;5066512;28;20029;-63
2021/12/13 02:02:20;;;;;;;40.22;28.15;;;;;;;9.00;100.00;102520.44;5069679;28;20483;-62
2021/12/13 02:04:59;;;;;;;42.70;27.77;;;;;;;8.98;100.00;102508.25;5069086;28;20028;-62
2021/12/13 02:07:27;;;;;;;45.08;29.88;;;;;;;8.99;100.00;102528.50;5069775;28;20393;-62
2021/12/13 02:09:55;;;;;;;44.30;27.67;;;;;;;8.99;100.00;102526.69;5068541;28;20101;-63
2021/12/13 02:12:20;;;;;;;43.92;28.90;;;;;;;8.98;100.00;102519.69;5068293;28;20036;-62
2021/12/13 02:16:56;;;;;;;48.17;30.30;;;;;;;8.96;100.00;102524.28;5069687;28;20090;-63
2021/12/13 02:17:42;;;;;;;44.35;28.63;;;;;;;8.95;100.00;102519.06;5062396;28;20097;-63
2021/12/13 02:20:17;;;;;;;47.25;29.73;;;;;;;8.95;100.00;102516.41;5068784;28;20074;-63
2021/12/13 02:22:45;;;;;;;46.50;28.85;;;;;;;8.94;100.00;102520.88;5069513;28;20488;-63
2021/12/13 02:25:30;;;;;;;46.47;29.63;;;;;;;8.93;100.00;102519.19;5068911;28;20028;-63
2021/12/13 02:28:08;;;;;;;48.70;28.83;;;;;;;8.89;100.00;102511.59;5066740;28;20028;-62
2021/12/13 02:30:46;;;;;;;50.08;29.90;;;;;;;8.90;100.00;102513.28;5069277;28;20030;-63
2021/12/13 02:33:20;;;;;;;50.20;29.45;;;;;;;8.90;100.00;102502.69;5069129;28;20358;-63
2021/12/13 02:36:08;;;;;;;51.83;30.00;;;;;;;8.89;100.00;102504.50;5068181;28;20099;-62
2021/12/13 02:38:34;;;;;;;54.05;29.40;;;;;;;8.88;100.00;102507.25;5065468;28;20032;-63
2021/12/13 02:41:00;;;;;;;51.17;29.98;;;;;;;8.83;100.00;102504.13;5068603;28;20048;-63
2021/12/13 02:43:37;;;;;;;50.97;30.30;;;;;;;8.85;100.00;102508.34;5068961;28;20024;-62
2021/12/13 02:46:04;;;;;;;53.35;30.38;;;;;;;8.84;100.00;102506.66;5067758;28;20086;-62
2021/12/13 02:49:03;;;;;;;50.78;30.20;;;;;;;8.83;100.00;102499.69;5067358;28;20119;-63
2021/12/13 02:51:33;;;;;;;52.65;30.20;;;;;;;8.84;100.00;102521.72;5057875;28;20043;-63
2021/12/13 02:54:01;;;;;;;54.50;31.05;;;;;;;8.82;100.00;102524.47;5068895;28;20032;-62
2021/12/13 02:56:34;;;;;;;54.10;31.23;;;;;;;8.80;100.00;102523.75;5068605;28;20108;-62
2021/12/13 02:59:05;;;;;;;58.38;31.88;;;;;;;8.80;100.00;102505.22;5066354;28;21107;-63
2021/12/13 03:01:43;;;;;;;54.08;31.50;;;;;;;8.80;100.00;102518.47;5068881;28;20048;-63
2021/12/13 03:04:14;;;;;;;60.25;33.00;;;;;;;8.81;100.00;102517.50;5068511;28;21521;-63
2021/12/13 03:06:54;;;;;;;60.10;31.85;;;;;;;8.79;100.00;102511.47;5068588;28;20051;-63
2021/12/13 03:09:23;;;;;;;62.10;32.75;;;;;;;8.78;100.00;102506.28;5067276;28;20032;-62
2021/12/13 03:11:50;;;;;;;57.28;32.80;;;;;;;8.74;100.00;102505.69;5065978;28;20028;-63
2021/12/13 03:14:24;;;;;;;56.63;31.98;;;;;;;8.74;100.00;102510.16;5068631;28;20024;-62
2021/12/13 03:17:18;;;;;;;63.47;32.97;;;;;;;8.72;100.00;102510.25;5068008;28;20044;-62
2021/12/13 03:20:10;;;;;;;62.17;34.30;;;;;;;8.71;100.00;102511.22;5066974;28;20020;-62
2021/12/13 03:22:50;;;;;;;65.65;33.88;;;;;;;8.69;100.00;102518.44;5064356;28;20025;-63
2021/12/13 03:25:39;;;;;;;63.47;33.97;;;;;;;8.71;100.00;102523.63;5068296;28;20032;-62
2021/12/13 03:28:13;;;;;;;;;;;;;;;8.72;100.00;102523.50;5065664;28;20085;-63
2021/12/13 03:31:03;;;;;;;62.90;34.80;;;;;;;8.70;100.00;102517.47;5062837;28;19908;-63
2021/12/13 03:33:40;;;;;;;64.90;35.10;;;;;;;8.69;100.00;102529.03;5068214;28;20078;-63
2021/12/13 03:36:09;;;;;;;63.78;33.42;;;;;;;8.69;100.00;102521.94;5067322;28;20024;-62
2021/12/13 03:38:46;;;;;;;65.13;34.20;;;;;;;8.69;100.00;102523.75;5067636;28;20018;-62
2021/12/13 03:41:15;;;;;;;63.13;33.97;;;;;;;8.68;100.00;102528.19;5068541;28;20070;-62
2021/12/13 03:43:46;;;;;;;63.53;33.40;;;;;;;8.68;100.00;102530.84;5067775;28;20060;-62
2021/12/13 03:46:14;;;;;;;59.80;32.35;;;;;;;8.68;100.00;102522.91;5061465;28;20038;-62
2021/12/13 03:48:42;;;;;;;64.07;33.90;;;;;;;8.68;100.00;102519.41;5062947;28;20036;-63
2021/12/13 03:51:12;;;;;;;63.40;34.95;;;;;;;8.67;100.00;102521.22;5064492;28;20090;-63
2021/12/13 03:53:39;;;;;;;59.72;33.15;;;;;;;8.69;100.00;102523.75;5066469;28;20242;-62
2021/12/13 03:56:11;;;;;;;65.18;34.67;;;;;;;8.70;100.00;102525.44;5067288;28;20037;-63
2021/12/13 03:58:43;;;;;;;56.63;32.60;;;;;;;8.68;100.00;102527.34;5061532;28;20056;-62
2021/12/13 04:01:17;;;;;;;60.55;33.88;;;;;;;8.67;100.00;102526.50;5061863;28;20032;-62
2021/12/13 04:03:43;;;;;;;65.30;33.78;;;;;;;8.66;100.00;102524.78;5065528;28;20439;-63
2021/12/13 04:06:14;;;;;;;60.42;32.83;;;;;;;8.64;100.00;102528.53;5065083;28;20078;-63
2021/12/13 04:08:39;;;;;;;60.97;33.35;;;;;;;8.65;100.00;102524.91;5066650;28;20064;-62
2021/12/13 04:11:08;;;;;;;60.20;33.67;;;;;;;8.64;100.00;102525.88;5068063;28;20060;-63
2021/12/13 04:13:38;;;;;;;60.35;31.83;;;;;;;8.63;100.00;102524.19;5068584;28;20036;-63
2021/12/13 04:16:34;;;;;;;61.80;33.50;;;;;;;8.63;100.00;102522.38;5067994;28;20060;-63
2021/12/13 04:19:07;;;;;;;60.67;32.05;;;;;;;8.62;100.00;102520.69;5067630;28;20023;-63
2021/12/13 04:21:44;;;;;;;64.95;33.58;;;;;;;8.62;100.00;102519.84;5064464;28;20411;-63
2021/12/13 04:24:45;;;;;;;60.65;32.00;;;;;;;8.62;100.00;102528.63;5071047;28;20016;-62
2021/12/13 04:27:30;;;;;;;61.38;33.17;;;;;;;8.63;100.00;102526.84;5046840;28;20036;-62
2021/12/13 04:30:00;;;;;;;59.13;32.17;;;;;;;8.61;100.00;102523.47;5070010;28;20185;-62
2021/12/13 04:32:35;;;;;;;63.47;31.95;;;;;;;8.61;100.00;102532.25;5071392;28;20067;-62
2021/12/13 04:35:06;;;;;;;67.07;34.17;;;;;;;8.61;100.00;102536.69;5071663;28;20507;-62
2021/12/13 04:37:37;;;;;;;63.40;33.13;;;;;;;8.60;100.00;102529.72;5070840;28;20020;-62
2021/12/13 04:40:10;;;;;;;59.67;33.20;;;;;;;8.59;100.00;102528.03;5056649;28;20028;-62
2021/12/13 04:42:35;;;;;;;58.22;31.80;;;;;;;8.58;100.00;102527.19;5072051;28;20107;-62
2021/12/13 04:45:09;;;;;;;61.22;31.98;;;;;;;8.58;100.00;102523.69;5072078;28;20100;-63
2021/12/13 04:47:58;;;;;;;59.30;30.98;;;;;;;8.58;100.00;102526.34;5071254;28;20029;-63
2021/12/13 04:50:23;;;;;;;59.30;31.70;;;;;;;8.59;100.00;102533.31;5070609;28;20024;-63
2021/12/13 04:52:51;;;;;;;59.38;30.80;;;;;;;8.55;100.00;102535.38;5067451;28;20040;-63
2021/12/13 04:55:22;;;;;;;57.45;30.55;;;;;;;8.57;100.00;102527.31;5071226;28;20028;-63
2021/12/13 04:57:49;;;;;;;59.10;31.08;;;;;;;8.56;100.00;102526.47;5069879;28;20111;-63
2021/12/13 05:00:18;;;;;;;58.30;30.95;;;;;;;8.57;100.00;102529.97;5070931;28;20503;-62
2021/12/13 05:02:47;;;;;;;57.00;31.17;;;;;;;8.58;100.00;102531.63;5070818;28;20028;-62
2021/12/13 05:05:13;;;;;;;62.90;31.25;;;;;;;8.58;100.00;102521.06;5071197;28;20075;-62
2021/12/13 05:07:41;;;;;;;55.10;30.35;;;;;;;8.59;100.00;102530.69;5070294;28;20389;-62
2021/12/13 05:10:07;;;;;;;53.05;29.70;;;;;;;8.59;100.00;102526.22;5069612;28;20551;-63
2021/12/13 05:12:33;;;;;;;50.40;28.95;;;;;;;8.58;100.00;102531.63;5071152;28;20116;-63
2021/12/13 05:15:07;;;;;;;53.42;28.63;;;;;;;8.61;100.00;102536.69;5070215;28;20055;-62
2021/12/13 05:17:36;;;;;;;50.67;28.10;;;;;;;8.60;100.00;102540.31;5070164;28;20119;-62
2021/12/13 05:20:20;;;;;;;48.55;28.10;;;;;;;8.61;100.00;102536.69;5069279;28;20036;-63
2021/12/13 05:22:56;;;;;;;49.90;28.42;;;;;;;8.61;100.00;102534.06;5066860;28;20070;-62
2021/12/13 05:25:40;;;;;;;48.20;28.08;;;;;;;8.61;100.00;102534.06;5069796;28;20095;-63
2021/12/13 05:28:14;;;;;;;51.33;27.70;;;;;;;8.61;100.00;102542.00;5069598;28;20503;-63
2021/12/13 05:30:48;;;;;;;49.63;26.75;;;;;;;8.61;100.00;102539.34;5069512;28;20071;-63
2021/12/13 05:33:17;;;;;;;46.35;26.98;;;;;;;8.59;100.00;102538.63;5062862;28;20472;-63
2021/12/13 05:35:49;;;;;;;46.55;26.63;;;;;;;8.57;100.00;102538.75;5068094;28;20036;-63
2021/12/13 05:38:35;;;;;;;46.75;27.08;;;;;;;8.59;100.00;102541.28;5068100;28;20027;-63
2021/12/13 05:41:06;;;;;;;46.25;26.45;;;;;;;8.58;100.00;102543.06;5061934;28;20024;-62
2021/12/13 05:43:39;;;;;;;47.08;27.25;;;;;;;8.58;100.00;102536.94;5069963;28;20032;-63
2021/12/13 05:46:13;;;;;;;47.03;26.27;;;;;;;8.57;100.00;102536.09;5063735;28;20122;-63
2021/12/13 05:48:48;;;;;;;47.85;27.48;;;;;;;8.55;100.00;102538.03;5068668;28;20028;-63
2021/12/13 05:51:41;;;;;;;46.28;25.85;;;;;;;8.56;100.00;102542.34;5069799;28;20070;-63
2021/12/13 05:54:26;;;;;;;47.72;26.13;;;;;;;8.55;100.00;102545.13;5056348;28;20062;-63
2021/12/13 05:56:58;;;;;;;45.70;25.98;;;;;;;8.54;100.00;102540.78;5064720;28;20024;-63
2021/12/13 05:59:23;;;;;;;44.10;24.38;;;;;;;8.53;100.00;102539.09;5069155;28;20043;-62
2021/12/13 06:02:16;;;;;;;42.58;25.27;;;;;;;8.52;100.00;102538.25;5068583;28;20387;-62
2021/12/13 06:05:05;;;;;;;43.28;24.88;;;;;;;8.51;99.99;102546.31;5069058;28;20051;-63
2021/12/13 06:07:34;;;;;;;40.72;24.10;;;;;;;8.50;100.00;102548.13;5070147;28;20028;-63
2021/12/13 06:10:05;;;;;;;45.20;25.08;;;;;;;8.48;100.00;102538.59;5069565;28;20040;-63
2021/12/13 06:12:40;;;;;;;44.53;24.35;;;;;;;8.47;99.93;102545.69;5069747;28;20028;-63
2021/12/13 06:15:31;;;;;;;43.13;23.98;;;;;;;8.47;99.88;102552.81;5069120;28;20020;-63
2021/12/13 06:18:10;;;;;;;44.15;23.60;;;;;;;8.47;100.00;102555.44;5067587;28;20024;-62
2021/12/13 06:20:54;;;;;;;44.33;23.43;;;;;;;8.46;100.00;102551.97;5063546;28;20159;-63
2021/12/13 06:23:32;;;;;;;40.75;23.65;;;;;;;8.48;100.00;102543.91;5068896;28;20274;-63
2021/12/13 06:26:04;;;;;;;40.90;23.55;;;;;;;8.47;99.80;102540.41;5066140;28;20016;-62
2021/12/13 06:28:38;;;;;;;42.35;22.17;;;;;;;8.48;100.00;102543.91;5067948;28;20020;-63
2021/12/13 06:31:12;;;;;;;40.65;22.83;;;;;;;8.48;99.65;102551.84;5068779;28;20090;-63
2021/12/13 06:33:57;;;;;;;39.30;22.27;;;;;;;8.48;99.63;102552.69;5069729;28;20626;-63
2021/12/13 06:36:25;;;;;;;40.85;22.85;;;;;;;8.49;99.55;102558.81;5069303;28;20043;-63
2021/12/13 06:38:55;;;;;;;37.20;21.38;;;;;;;8.50;99.45;102569.28;5067049;28;20028;-63
2021/12/13 06:41:26;;;;;;;36.55;21.00;;;;;;;8.49;99.35;102564.97;5069454;28;20020;-63
2021/12/13 06:43:57;;;;;;;35.53;21.70;;;;;;;8.50;99.54;102571.09;5068577;28;20042;-63
2021/12/13 06:46:22;;;;;;;37.05;20.55;;;;;;;8.48;99.51;102565.91;5063278;28;20032;-63
2021/12/13 06:49:00;;;;;;;36.33;21.38;;;;;;;8.48;99.64;102562.44;5067951;28;20031;-63
2021/12/13 06:51:46;;;;;;;34.83;19.73;;;;;;;8.48;99.50;102560.63;5068801;28;20021;-63
2021/12/13 06:54:16;;;;;;;33.40;19.70;;;;;;;8.48;99.03;102563.28;5068309;28;20059;-63
2021/12/13 06:56:44;;;;;;;29.55;18.92;;;;;;;8.47;99.33;102563.38;5062521;28;20115;-63
2021/12/13 06:59:15;;;;;;;35.58;20.15;;;;;;;8.45;98.97;102568.81;5064896;28;20026;-63
2021/12/13 07:01:41;;;;;;;33.90;20.13;;;;;;;8.47;98.99;102573.97;5059656;28;20050;-63
2021/12/13 07:04:10;;;;;;;31.52;18.40;;;;;;;8.49;99.11;102580.00;5067885;28;20028;-63
2021/12/13 07:06:36;;;;;;;32.90;18.75;;;;;;;8.50;98.71;102582.53;5062354;28;20411;-63
2021/12/13 07:09:15;;;;;;;31.67;18.50;;;;;;;8.49;99.12;102580.00;5066850;28;20487;-63
2021/12/13 07:11:49;;;;;;;;;;;;;;;8.50;99.02;102582.53;5064401;28;20032;-63
2021/12/13 07:14:17;;;;;;;32.20;18.90;;;;;;;8.48;98.74;102588.91;5068892;28;20151;-63
2021/12/13 07:16:53;;;;;;;32.03;19.02;;;;;;;8.45;98.85;102579.41;5067712;28;20119;-64
2021/12/13 07:19:24;;;;;;;31.90;19.40;;;;;;;8.48;99.00;102586.25;5068045;28;20028;-63
2021/12/13 07:21:59;;;;;;;29.17;18.25;;;;;;;8.49;98.84;102591.44;5068743;28;20017;-63
2021/12/13 07:24:40;;;;;;;31.63;18.85;;;;;;;8.50;98.71;102594.94;5068096;28;20025;-63
2021/12/13 07:27:22;;;;;;;33.60;18.75;;;;;;;8.47;98.89;102596.00;5062454;28;20024;-63
2021/12/13 07:29:51;;;;;;;35.15;18.77;;;;;;;8.47;98.73;102600.47;5066099;28;20021;-63
2021/12/13 07:32:24;;;;;;;32.00;18.65;;;;;;;8.48;99.03;102596.84;5067317;28;20161;-63
2021/12/13 07:35:05;;;;;;;31.17;18.30;;;;;;;8.47;98.75;102592.50;5068276;28;20032;-63
2021/12/13 07:37:51;;;;;;;31.95;18.45;;;;;;;8.45;98.62;102597.06;5067847;28;20052;-63
2021/12/13 07:40:46;;;;;;;31.73;18.73;;;;;;;8.43;98.80;102594.53;5062859;28;20072;-63
2021/12/13 07:43:20;;;;;;;31.00;17.83;;;;;;;8.43;99.18;102601.66;5068542;28;20111;-63
2021/12/13 07:46:05;;;;;;;33.55;18.98;;;;;;;8.41;99.12;102598.28;5068304;28;20446;-63
2021/12/13 07:48:42;;;;;;;30.58;17.88;;;;;;;8.42;99.12;102608.75;5064959;28;20020;-63
2021/12/13 07:51:25;;;;;;;32.30;19.40;;;;;;;8.41;98.94;102609.69;5068090;28;20138;-63
2021/12/13 07:53:56;;;;;;;31.00;17.88;;;;;;;8.43;99.37;102618.38;5068777;28;20027;-63
2021/12/13 07:56:39;;;;;;;32.67;17.25;;;;;;;8.44;99.05;102619.22;5068643;28;20415;-63
2021/12/13 07:59:27;;;;;;;32.63;18.27;;;;;;;8.44;98.85;102614.78;5070339;28;20044;-63
2021/12/13 08:02:02;;;;;;;32.45;18.13;;;;;;;8.42;99.04;102614.03;5071630;28;20078;-63
2021/12/13 08:04:32;;;;;;;34.55;17.83;;;;;;;8.42;99.08;102621.13;5072640;28;20027;-63
2021/12/13 08:06:59;;;;;;;;;;;;;;;8.43;99.32;102618.38;5072465;28;20024;-63
2021/12/13 08:09:28;;;;;;;30.48;16.92;;;;;;;8.43;99.34;102609.59;5070942;28;20068;-63
2021/12/13 08:12:02;;;;;;;28.35;16.95;;;;;;;8.43;99.29;102615.72;5071602;28;20377;-63
2021/12/13 08:14:37;;;;;;;30.73;17.38;;;;;;;8.44;99.40;102619.22;5072010;28;20021;-63
2021/12/13 08:17:15;;;;;;;30.10;17.38;;;;;;;8.43;99.18;102609.59;5072011;28;20522;-63
2021/12/13 08:19:42;;;;;;;29.00;16.33;;;;;;;8.41;99.10;102624.75;5070676;28;20020;-63
2021/12/13 08:22:14;;;;;;;31.52;17.08;;;;;;;8.42;99.34;102618.50;5072056;28;20372;-63
2021/12/13 08:24:44;;;;;;;33.97;16.58;;;;;;;8.43;99.33;102620.19;5070978;28;20058;-63
2021/12/13 08:27:34;;;;;;;28.08;15.98;;;;;;;8.42;98.93;102615.84;5072058;28;20047;-63
2021/12/13 08:30:09;;;;;;;28.92;15.88;;;;;;;8.42;99.26;102606.09;5071304;28;20505;-63
2021/12/13 08:32:35;;;;;;;24.95;15.95;;;;;;;8.43;99.08;102618.38;5071646;28;20028;-63
2021/12/13 08:35:05;;;;;;;29.17;16.73;;;;;;;8.44;98.88;102619.22;5071843;28;20550;-63
2021/12/13 08:37:35;;;;;;;28.38;16.48;;;;;;;8.43;98.89;102614.88;5071077;28;20094;-63
2021/12/13 08:40:11;;;;;;;;;;;;;;;8.45;99.05;102612.97;5072023;28;20020;-63
2021/12/13 08:42:42;;;;;;;31.40;16.17;;;;;;;8.43;98.90;102628.13;5069967;28;20626;-63
2021/12/13 08:45:26;;;;;;;28.20;15.95;;;;;;;8.44;98.53;102625.34;5071675;28;20024;-63
2021/12/13 08:48:01;;;;;;;25.00;15.73;;;;;;;8.42;98.86;102627.28;5070745;28;20028;-63
2021/12/13 08:51:00;;;;;;;24.73;14.93;;;;;;;8.45;98.74;102618.25;5071110;28;20029;-64
2021/12/13 08:53:34;;;;;;;;;;;;;;;8.46;98.54;102627.88;5015934;28;20044;-63
2021/12/13 08:56:03;;;;;;;28.25;15.95;;;;;;;8.45;98.55;102623.56;5070851;28;19915;-63
2021/12/13 08:58:28;;;;;;;22.05;14.48;;;;;;;8.41;98.74;102620.28;5070718;28;20073;-63
2021/12/13 09:01:06;;;;;;;27.20;15.32;;;;;;;8.47;98.28;102629.59;5071098;28;20024;-63
2021/12/13 09:03:44;;;;;;;22.40;14.43;;;;;;;8.45;98.29;102620.91;5069509;28;20025;-63
2021/12/13 09:06:18;;;;;;;21.40;14.65;;;;;;;8.45;98.06;102615.63;5071743;28;20074;-63
2021/12/13 09:09:04;;;;;;;21.80;14.02;;;;;;;8.45;98.03;102620.91;5069257;28;20107;-63
2021/12/13 09:11:35;;;;;;;22.35;14.55;;;;;;;8.45;98.05;102623.56;5066285;28;20020;-62
2021/12/13 09:14:20;;;;;;;21.17;13.80;;;;;;;8.46;98.22;102635.84;5056524;28;20020;-63
2021/12/13 09:17:26;;;;;;;22.15;14.00;;;;;;;8.45;98.19;102634.16;5071320;28;20498;-63
2021/12/13 09:19:57;;;;;;;20.63;13.32;;;;;;;8.44;98.34;102645.69;5070121;28;20031;-63
2021/12/13 09:22:25;;;;;;;18.65;13.38;;;;;;;8.45;97.99;102642.09;5070490;28;20020;-63
2021/12/13 09:25:46;;;;;;;22.10;13.52;;;;;;;8.46;97.94;102652.56;5070471;28;20032;-63
2021/12/13 09:28:18;;;;;;;19.80;13.13;;;;;;;8.47;98.23;102650.75;5052716;28;20120;-63
2021/12/13 09:30:46;;;;;;;21.40;13.35;;;;;;;8.46;98.16;102657.00;5070593;28;20031;-63
2021/12/13 09:33:21;;;;;;;21.98;13.73;;;;;;;8.45;98.02;102663.28;5070608;28;20054;-63
2021/12/13 09:35:55;;;;;;;20.60;12.80;;;;;;;8.47;97.59;102674.59;5070837;28;20024;-63
2021/12/13 09:38:40;;;;;;;19.23;12.70;;;;;;;8.47;97.55;102677.25;5065683;28;20088;-63
2021/12/13 09:41:13;;;;;;;20.20;12.48;;;;;;;8.48;97.69;102679.78;5065740;28;20040;-63
2021/12/13 09:43:47;;;;;;;17.98;11.82;;;;;;;8.49;97.47;102688.56;5070763;28;20078;-63
2021/12/13 09:46:19;;;;;;;20.83;13.15;;;;;;;8.49;97.59;102697.34;5070340;28;20275;-63
2021/12/13 09:48:49;;;;;;;17.73;11.65;;;;;;;8.48;97.31;102695.66;5069360;28;20533;-63
2021/12/13 09:51:44;;;;;;;17.48;12.07;;;;;;;8.54;97.49;102703.16;5069579;28;20059;-63
2021/12/13 09:54:13;;;;;;;17.60;11.60;;;;;;;8.53;97.03;102703.25;5065752;28;20067;-63
2021/12/13 09:56:49;;;;;;;19.70;11.80;;;;;;;8.55;96.92;102711.94;5070694;28;20098;-63
2021/12/13 09:59:16;;;;;;;17.35;11.40;;;;;;;8.54;96.93;102702.31;5068791;28;20027;-63
2021/12/13 10:01:43;;;;;;;16.75;11.23;;;;;;;8.56;97.01;102703.88;5069937;28;20129;-63
2021/12/13 10:04:16;;;;;;;15.90;11.30;;;;;;;8.57;96.75;102707.38;5069502;28;20016;-63
2021/12/13 10:06:44;;;;;;;17.73;11.32;;;;;;;8.57;97.15;102699.44;5069530;28;20398;-63
2021/12/13 10:09:20;;;;;;;18.35;11.75;;;;;;;8.57;96.75;102707.38;5068693;28;20024;-63
2021/12/13 10:11:52;;;;;;;16.88;11.27;;;;;;;8.56;96.79;102703.88;5069442;28;20041;-62
2021/12/13 10:14:24;;;;;;;18.50;11.43;;;;;;;8.58;96.62;102701.97;5069090;28;20020;-63
2021/12/13 10:16:54;;;;;;;15.90;11.00;;;;;;;8.59;96.80;102701.00;5068557;28;20170;-63
2021/12/13 10:19:28;;;;;;;18.85;11.60;;;;;;;8.59;96.78;102692.22;5068949;28;20606;-63
2021/12/13 10:21:55;;;;;;;17.52;11.77;;;;;;;8.60;96.79;102693.91;5068893;28;20030;-63
2021/12/13 10:24:29;;;;;;;15.80;10.68;;;;;;;8.59;96.58;102686.91;5069324;28;20028;-63
2021/12/13 10:26:57;;;;;;;15.68;10.35;;;;;;;8.59;96.54;102690.41;5063692;28;20404;-63
2021/12/13 10:29:24;;;;;;;15.17;10.73;;;;;;;8.61;96.16;102688.50;5068048;28;20030;-63
2021/12/13 10:32:05;;;;;;;18.42;11.20;;;;;;;8.61;96.20;102685.84;5070045;28;20028;-62
2021/12/13 10:34:38;;;;;;;14.65;10.80;;;;;;;8.62;96.00;102687.53;5069149;28;20107;-63
2021/12/13 10:37:21;;;;;;;17.85;11.43;;;;;;;8.63;96.39;102689.22;5069780;28;20553;-63
2021/12/13 10:39:54;;;;;;;15.32;11.20;;;;;;;8.63;95.94;102683.94;5067813;28;20023;-63
2021/12/13 10:42:32;;;;;;;19.63;11.25;;;;;;;8.64;95.77;102687.44;5068801;28;20020;-63
2021/12/13 10:45:00;;;;;;;18.48;12.43;;;;;;;8.63;95.93;102691.88;5063675;28;20024;-63
2021/12/13 10:47:34;;;;;;;19.10;11.82;;;;;;;8.64;96.19;102695.38;5068842;28;20043;-63
2021/12/13 10:50:02;;;;;;;20.77;12.20;;;;;;;8.63;95.92;102693.69;5061896;28;20028;-63
2021/12/13 10:52:31;;;;;;;18.92;13.43;;;;;;;8.63;95.71;102688.38;5068541;28;20514;-63
2021/12/13 10:55:00;;;;;;;18.77;13.25;;;;;;;8.61;95.95;102685.00;5069755;28;20024;-63
2021/12/13 10:57:30;;;;;;;17.75;12.77;;;;;;;8.63;95.76;102689.22;5068662;28;20029;-63
2021/12/13 10:59:58;;;;;;;19.67;13.90;;;;;;;8.63;95.66;102683.09;5068270;28;20108;-63
2021/12/13 11:02:29;;;;;;;18.98;13.43;;;;;;;8.62;95.80;102686.69;5066532;28;20021;-63
2021/12/13 11:05:09;;;;;;;20.60;13.82;;;;;;;8.62;95.79;102678.75;5066595;28;20487;-63
2021/12/13 11:07:35;;;;;;;20.13;13.00;;;;;;;8.62;95.76;102682.25;5066317;28;20069;-63
2021/12/13 11:10:07;;;;;;;20.42;13.30;;;;;;;8.62;95.62;102684.03;5068532;28;20032;-63
2021/12/13 11:12:38;;;;;;;18.50;13.68;;;;;;;8.63;95.94;102680.44;5068806;28;20111;-63
2021/12/13 11:15:11;;;;;;;18.70;13.10;;;;;;;8.64;95.79;102674.19;5068443;28;20024;-63
2021/12/13 11:17:37;;;;;;;19.65;13.27;;;;;;;8.64;95.92;102663.59;5068401;28;20081;-63
2021/12/13 11:20:11;;;;;;;16.85;13.02;;;;;;;8.63;95.66;102668.03;5068415;28;20166;-63
2021/12/13 11:22:37;;;;;;;23.08;13.85;;;;;;;8.63;95.69;102662.75;5069244;28;20036;-63
2021/12/13 11:25:20;;;;;;;16.92;12.50;;;;;;;8.64;95.48;102664.44;5068423;28;20024;-63
2021/12/13 11:27:46;;;;;;;16.90;12.15;;;;;;;8.66;95.12;102666.97;5067345;28;20041;-63
2021/12/13 11:30:20;;;;;;;17.45;11.88;;;;;;;8.67;95.60;102681.91;5068462;28;20029;-63
2021/12/13 11:32:57;;;;;;;18.02;12.23;;;;;;;8.68;95.35;102671.22;5068549;28;20604;-63
2021/12/13 11:36:01;;;;;;;18.02;12.68;;;;;;;8.70;95.17;102676.41;5068563;28;20066;-63
2021/12/13 11:38:53;;;;;;;16.67;12.35;;;;;;;8.67;94.99;102664.22;5067835;28;20103;-63
2021/12/13 11:41:56;;;;;;;18.80;11.43;;;;;;;8.70;94.62;102655.22;5067278;28;20021;-63
2021/12/13 11:44:33;;;;;;;15.35;10.95;;;;;;;8.69;94.80;102656.19;5067325;28;20024;-63
2021/12/13 11:47:29;;;;;;;17.08;11.35;;;;;;;8.71;94.64;102661.34;5068572;28;20141;-63
2021/12/13 11:50:03;;;;;;;16.63;11.98;;;;;;;8.66;94.38;102661.66;5062086;28;20024;-63
2021/12/13 11:52:58;;;;;;;18.00;11.95;;;;;;;8.71;94.77;102672.78;5068065;28;20032;-63